sensor_id;sensor_type;location;lat;lon;timestamp;pressure;altitude;pressure_sealevel;temperature;humidity
71457;BME280;59263;48.160;11.752;2023-01-30T00:01:39;96524.53;;;-3.79;100.00
71457;BME280;59263;48.160;11.752;2023-01-30T00:04:05;96516.47;;;-3.93;100.00
71457;BME280;59263;48.160;11.752;2023-01-30T00:06:30;96513.84;;;-3.88;100.00
71457;BME280;59263;48.160;11.752;2023-01-30T00:08:56;96504.72;;;-3.94;100.00
71457;BME280;59263;48.160;11.752;2023-01-30T00:11:21;96504.72;;;-3.94;100.00
71457;BME280;59263;48.160;11.752;2023-01-30T00:13:48;96512.91;;;-3.86;100.00
71457;BME280;59263;48.160;11.752;2023-01-30T00:16:14;96499.72;;;-3.97;100.00
71457;BME280;59263;48.160;11.752;2023-01-30T00:18:40;96489.03;;;-4.07;100.00
71457;BME280;59263;48.160;11.752;2023-01-30T00:21:08;96499.81;;;-4.00;100.00
71457;BME280;59263;48.160;11.752;2023-01-30T00:23:35;96483.22;;;-4.10;100.00
71457;BME280;59263;48.160;11.752;2023-01-30T00:26:01;96496.50;;;-4.02;100.00
71457;BME280;59263;48.160;11.752;2023-01-30T00:28:27;96489.94;;;-4.09;100.00
71457;BME280;59263;48.160;11.752;2023-01-30T00:30:53;96499.16;;;-4.08;100.00
71457;BME280;59263;48.160;11.752;2023-01-30T00:33:20;96493.41;;;-4.14;100.00
71457;BME280;59263;48.160;11.752;2023-01-30T00:35:47;96481.72;;;-4.18;100.00
71457;BME280;59263;48.160;11.752;2023-01-30T00:38:14;96485.25;;;-4.25;100.00
71457;BME280;59263;48.160;11.752;2023-01-30T00:40:39;96487.84;;;-4.28;100.00
71457;BME280;59263;48.160;11.752;2023-01-30T00:43:05;96472.81;;;-4.34;100.00
71457;BME280;59263;48.160;11.752;2023-01-30T00:45:51;96461.31;;;-4.44;100.00
71457;BME280;59263;48.160;11.752;2023-01-30T00:48:56;96451.28;;;-4.49;100.00
71457;BME280;59263;48.160;11.752;2023-01-30T00:51:22;96433.16;;;-4.65;100.00
71457;BME280;59263;48.160;11.752;2023-01-30T00:53:47;96463.09;;;-4.49;100.00
71457;BME280;59263;48.160;11.752;2023-01-30T00:56:13;96460.66;;;-4.52;100.00
71457;BME280;59263;48.160;11.752;2023-01-30T00:58:38;96434.03;;;-4.66;100.00
71457;BME280;59263;48.160;11.752;2023-01-30T01:01:04;96447.38;;;-4.60;100.00
71457;BME280;59263;48.160;11.752;2023-01-30T01:03:29;96449.06;;;-4.59;100.00
71457;BME280;59263;48.160;11.752;2023-01-30T01:05:55;96453.16;;;-4.55;100.00
71457;BME280;59263;48.160;11.752;2023-01-30T01:08:20;96434.88;;;-4.65;100.00
71457;BME280;59263;48.160;11.752;2023-01-30T01:10:46;96439.91;;;-4.65;100.00
71457;BME280;59263;48.160;11.752;2023-01-30T01:13:12;96423.22;;;-4.71;100.00
71457;BME280;59263;48.160;11.752;2023-01-30T01:15:37;96419.91;;;-4.73;100.00
71457;BME280;59263;48.160;11.752;2023-01-30T01:18:02;96409.88;;;-4.76;100.00
71457;BME280;59263;48.160;11.752;2023-01-30T01:20:28;96419.94;;;-4.74;100.00
71457;BME280;59263;48.160;11.752;2023-01-30T01:22:55;96433.22;;;-4.68;100.00
71457;BME280;59263;48.160;11.752;2023-01-30T01:25:22;96431.56;;;-4.67;100.00
71457;BME280;59263;48.160;11.752;2023-01-30T01:27:48;96424.06;;;-4.72;100.00
71457;BME280;59263;48.160;11.752;2023-01-30T01:30:14;96408.41;;;-4.86;100.00
71457;BME280;59263;48.160;11.752;2023-01-30T01:32:40;96433.41;;;-4.74;100.00
71457;BME280;59263;48.160;11.752;2023-01-30T01:35:05;96425.13;;;-4.80;100.00
71457;BME280;59263;48.160;11.752;2023-01-30T01:37:31;96426.09;;;-4.86;100.00
71457;BME280;59263;48.160;11.752;2023-01-30T01:39:56;96421.94;;;-4.89;100.00
71457;BME280;59263;48.160;11.752;2023-01-30T01:42:40;96416.16;;;-4.92;100.00
71457;BME280;59263;48.160;11.752;2023-01-30T01:47:44;96392.09;;;-5.08;100.00
71457;BME280;59263;48.160;11.752;2023-01-30T01:50:15;96390.53;;;-5.13;100.00
71457;BME280;59263;48.160;11.752;2023-01-30T01:52:41;96398.72;;;-5.03;100.00
71457;BME280;59263;48.160;11.752;2023-01-30T01:55:08;96397.84;;;-5.00;100.00
71457;BME280;59263;48.160;11.752;2023-01-30T01:57:38;96381.97;;;-5.05;100.00
71457;BME280;59263;48.160;11.752;2023-01-30T02:00:08;96397.69;;;-4.94;100.00
71457;BME280;59263;48.160;11.752;2023-01-30T02:02:42;96391.97;;;-5.02;100.00
71457;BME280;59263;48.160;11.752;2023-01-30T02:05:08;96402.06;;;-5.02;100.00
71457;BME280;59263;48.160;11.752;2023-01-30T02:07:47;96368.81;;;-5.18;100.00
71457;BME280;59263;48.160;11.752;2023-01-30T02:10:18;96411.06;;;-4.91;100.00
71457;BME280;59263;48.160;11.752;2023-01-30T02:12:44;96401.97;;;-4.98;100.00
71457;BME280;59263;48.160;11.752;2023-01-30T02:15:10;96421.13;;;-4.89;100.00
71457;BME280;59263;48.160;11.752;2023-01-30T02:17:35;96405.41;;;-5.02;100.00
71457;BME280;59263;48.160;11.752;2023-01-30T02:23:01;96420.38;;;-4.93;100.00
71457;BME280;59263;48.160;11.752;2023-01-30T02:25:54;96415.56;;;-5.03;100.00
71457;BME280;59263;48.160;11.752;2023-01-30T02:37:21;96396.31;;;-5.09;100.00
71457;BME280;59263;48.160;11.752;2023-01-30T02:42:54;96398.16;;;-5.16;100.00
71457;BME280;59263;48.160;11.752;2023-01-30T02:45:40;96410.75;;;-5.14;100.00
71457;BME280;59263;48.160;11.752;2023-01-30T02:48:11;96406.81;;;-5.26;100.00
71457;BME280;59263;48.160;11.752;2023-01-30T02:50:53;96422.69;;;-5.22;100.00
71457;BME280;59263;48.160;11.752;2023-01-30T02:53:21;96420.19;;;-5.24;100.00
71457;BME280;59263;48.160;11.752;2023-01-30T02:55:47;96394.59;;;-5.44;100.00
71457;BME280;59263;48.160;11.752;2023-01-30T02:58:13;96404.44;;;-5.33;100.00
71457;BME280;59263;48.160;11.752;2023-01-30T03:09:05;96429.47;;;-5.24;100.00
71457;BME280;59263;48.160;11.752;2023-01-30T03:11:57;96431.09;;;-5.22;100.00
71457;BME280;59263;48.160;11.752;2023-01-30T03:14:47;96407.97;;;-5.42;100.00
71457;BME280;59263;48.160;11.752;2023-01-30T03:17:17;96421.94;;;-5.26;100.00
71457;BME280;59263;48.160;11.752;2023-01-30T03:19:47;96414.31;;;-5.23;100.00
71457;BME280;59263;48.160;11.752;2023-01-30T03:22:13;96419.19;;;-5.17;100.00
71457;BME280;59263;48.160;11.752;2023-01-30T03:24:38;96409.16;;;-5.18;100.00
71457;BME280;59263;48.160;11.752;2023-01-30T03:27:10;96409.88;;;-5.12;100.00
71457;BME280;59263;48.160;11.752;2023-01-30T03:29:36;96398.03;;;-5.09;100.00
71457;BME280;59263;48.160;11.752;2023-01-30T03:32:02;96385.53;;;-5.14;100.00
71457;BME280;59263;48.160;11.752;2023-01-30T03:34:28;96368.03;;;-5.22;100.00
71457;BME280;59263;48.160;11.752;2023-01-30T03:36:53;96382.13;;;-5.12;100.00
71457;BME280;59263;48.160;11.752;2023-01-30T03:39:19;96409.88;;;-5.12;100.00
71457;BME280;59263;48.160;11.752;2023-01-30T03:41:45;96376.59;;;-5.29;100.00
71457;BME280;59263;48.160;11.752;2023-01-30T03:44:10;96364.09;;;-5.33;100.00
71457;BME280;59263;48.160;11.752;2023-01-30T03:46:36;96361.34;;;-5.23;100.00
71457;BME280;59263;48.160;11.752;2023-01-30T03:49:01;96353.16;;;-5.34;100.00
71457;BME280;59263;48.160;11.752;2023-01-30T03:51:26;96371.22;;;-5.14;100.00
71457;BME280;59263;48.160;11.752;2023-01-30T03:53:51;96357.94;;;-5.22;100.00
71457;BME280;59263;48.160;11.752;2023-01-30T03:56:17;96369.50;;;-5.12;100.00
71457;BME280;59263;48.160;11.752;2023-01-30T03:58:42;96356.09;;;-5.14;100.00
71457;BME280;59263;48.160;11.752;2023-01-30T04:01:08;96360.91;;;-5.04;100.00
71457;BME280;59263;48.160;11.752;2023-01-30T04:03:33;96365.13;;;-5.05;100.00
71457;BME280;59263;48.160;11.752;2023-01-30T04:05:59;96366.63;;;-4.96;100.00
71457;BME280;59263;48.160;11.752;2023-01-30T04:08:25;96367.19;;;-4.85;100.00
71457;BME280;59263;48.160;11.752;2023-01-30T04:10:50;96371.31;;;-4.82;100.00
71457;BME280;59263;48.160;11.752;2023-01-30T04:13:15;96364.75;;;-4.90;100.00
71457;BME280;59263;48.160;11.752;2023-01-30T04:15:40;96381.41;;;-4.81;100.00
71457;BME280;59263;48.160;11.752;2023-01-30T04:18:06;96394.72;;;-4.76;100.00
71457;BME280;59263;48.160;11.752;2023-01-30T04:20:31;96391.81;;;-4.60;100.00
71457;BME280;59263;48.160;11.752;2023-01-30T04:22:57;96366.63;;;-4.62;100.00
71457;BME280;59263;48.160;11.752;2023-01-30T04:25:22;96383.16;;;-4.50;100.00
71457;BME280;59263;48.160;11.752;2023-01-30T04:27:47;96371.09;;;-4.39;100.00
71457;BME280;59263;48.160;11.752;2023-01-30T04:30:13;96361.41;;;-4.54;100.00
71457;BME280;59263;48.160;11.752;2023-01-30T04:32:39;96394.38;;;-4.28;100.00
71457;BME280;59263;48.160;11.752;2023-01-30T04:35:04;96381.56;;;-4.20;100.00
71457;BME280;59263;48.160;11.752;2023-01-30T04:37:30;96382.38;;;-4.20;100.00
71457;BME280;59263;48.160;11.752;2023-01-30T04:39:56;96366.41;;;-4.20;100.00
71457;BME280;59263;48.160;11.752;2023-01-30T04:42:21;96383.13;;;-4.15;100.00
71457;BME280;59263;48.160;11.752;2023-01-30T04:44:46;96377.38;;;-4.21;100.00
71457;BME280;59263;48.160;11.752;2023-01-30T04:47:11;96359.06;;;-4.29;100.00
71457;BME280;59263;48.160;11.752;2023-01-30T04:49:37;96368.81;;;-4.16;100.00
71457;BME280;59263;48.160;11.752;2023-01-30T04:52:02;96340.16;;;-4.15;100.00
71457;BME280;59263;48.160;11.752;2023-01-30T04:54:28;96340.72;;;-4.05;100.00
71457;BME280;59263;48.160;11.752;2023-01-30T04:56:53;96333.13;;;-4.03;100.00
71457;BME280;59263;48.160;11.752;2023-01-30T04:59:18;96337.34;;;-4.04;100.00
71457;BME280;59263;48.160;11.752;2023-01-30T05:01:44;96318.28;;;-4.16;100.00
71457;BME280;59263;48.160;11.752;2023-01-30T05:04:09;96322.28;;;-4.08;100.00
71457;BME280;59263;48.160;11.752;2023-01-30T05:06:35;96351.34;;;-3.92;100.00
71457;BME280;59263;48.160;11.752;2023-01-30T05:09:01;96348.97;;;-3.98;100.00
71457;BME280;59263;48.160;11.752;2023-01-30T05:11:28;96340.81;;;-4.08;100.00
71457;BME280;59263;48.160;11.752;2023-01-30T05:13:54;96353.56;;;-4.13;100.00
71457;BME280;59263;48.160;11.752;2023-01-30T05:16:21;96328.31;;;-4.13;100.00
71457;BME280;59263;48.160;11.752;2023-01-30T05:18:47;96304.78;;;-4.15;100.00
71457;BME280;59263;48.160;11.752;2023-01-30T05:21:20;96296.34;;;-4.14;100.00
71457;BME280;59263;48.160;11.752;2023-01-30T05:23:46;96298.16;;;-4.19;100.00
71457;BME280;59263;48.160;11.752;2023-01-30T05:26:13;96298.13;;;-4.17;100.00
71457;BME280;59263;48.160;11.752;2023-01-30T05:28:39;96278.47;;;-4.37;100.00
71457;BME280;59263;48.160;11.752;2023-01-30T05:31:09;96304.25;;;-4.26;100.00
71457;BME280;59263;48.160;11.752;2023-01-30T05:33:35;96299.22;;;-4.26;100.00
71457;BME280;59263;48.160;11.752;2023-01-30T05:36:00;96298.31;;;-4.25;100.00
71457;BME280;59263;48.160;11.752;2023-01-30T05:38:26;96302.38;;;-4.19;100.00
71457;BME280;59263;48.160;11.752;2023-01-30T05:40:59;96285.84;;;-4.29;100.00
71457;BME280;59263;48.160;11.752;2023-01-30T05:43:25;96290.97;;;-4.34;100.00
71457;BME280;59263;48.160;11.752;2023-01-30T05:45:55;96310.16;;;-4.27;100.00
71457;BME280;59263;48.160;11.752;2023-01-30T05:48:22;96303.38;;;-4.25;100.00
71457;BME280;59263;48.160;11.752;2023-01-30T05:50:56;96297.50;;;-4.25;100.00
71457;BME280;59263;48.160;11.752;2023-01-30T05:53:23;96284.06;;;-4.27;100.00
71457;BME280;59263;48.160;11.752;2023-01-30T05:55:56;96307.19;;;-4.10;100.00
71457;BME280;59263;48.160;11.752;2023-01-30T05:58:22;96287.72;;;-4.06;100.00
71457;BME280;59263;48.160;11.752;2023-01-30T06:00:47;96271.75;;;-4.08;100.00
71457;BME280;59263;48.160;11.752;2023-01-30T06:03:12;96279.91;;;-3.99;100.00
71457;BME280;59263;48.160;11.752;2023-01-30T06:05:38;96290.69;;;-3.92;100.00
71457;BME280;59263;48.160;11.752;2023-01-30T06:08:03;96282.22;;;-3.91;100.00
71457;BME280;59263;48.160;11.752;2023-01-30T06:10:29;96272.13;;;-3.91;100.00
71457;BME280;59263;48.160;11.752;2023-01-30T06:12:54;96242.88;;;-4.00;100.00
71457;BME280;59263;48.160;11.752;2023-01-30T06:15:19;96241.63;;;-3.86;100.00
71457;BME280;59263;48.160;11.752;2023-01-30T06:17:44;96256.41;;;-3.73;100.00
71457;BME280;59263;48.160;11.752;2023-01-30T06:20:10;96286.97;;;-3.52;100.00
71457;BME280;59263;48.160;11.752;2023-01-30T06:22:36;96284.25;;;-3.46;100.00
71457;BME280;59263;48.160;11.752;2023-01-30T06:25:02;96270.72;;;-3.45;100.00
71457;BME280;59263;48.160;11.752;2023-01-30T06:27:27;96270.56;;;-3.39;100.00
71457;BME280;59263;48.160;11.752;2023-01-30T06:29:53;96276.34;;;-3.35;100.00
71457;BME280;59263;48.160;11.752;2023-01-30T06:32:18;96266.56;;;-3.46;100.00
71457;BME280;59263;48.160;11.752;2023-01-30T06:34:43;96283.06;;;-3.34;100.00
71457;BME280;59263;48.160;11.752;2023-01-30T06:37:09;96277.47;;;-3.44;100.00
71457;BME280;59263;48.160;11.752;2023-01-30T06:39:34;96261.88;;;-3.58;100.00
71457;BME280;59263;48.160;11.752;2023-01-30T06:41:59;96277.88;;;-3.58;100.00
71457;BME280;59263;48.160;11.752;2023-01-30T06:44:25;96294.66;;;-3.55;100.00
71457;BME280;59263;48.160;11.752;2023-01-30T06:46:51;96283.84;;;-3.60;100.00
71457;BME280;59263;48.160;11.752;2023-01-30T06:49:17;96280.31;;;-3.55;100.00
71457;BME280;59263;48.160;11.752;2023-01-30T06:51:42;96296.81;;;-3.43;100.00
71457;BME280;59263;48.160;11.752;2023-01-30T06:54:08;96278.31;;;-3.45;100.00
71457;BME280;59263;48.160;11.752;2023-01-30T06:56:33;96274.13;;;-3.45;100.00
71457;BME280;59263;48.160;11.752;2023-01-30T06:58:58;96295.66;;;-3.33;100.00
71457;BME280;59263;48.160;11.752;2023-01-30T07:01:24;96290.38;;;-3.25;100.00
71457;BME280;59263;48.160;11.752;2023-01-30T07:03:49;96284.00;;;-3.10;100.00
71457;BME280;59263;48.160;11.752;2023-01-30T07:06:14;96301.31;;;-2.98;100.00
71457;BME280;59263;48.160;11.752;2023-01-30T07:08:40;96291.19;;;-2.98;100.00
71457;BME280;59263;48.160;11.752;2023-01-30T07:11:05;96303.41;;;-2.84;100.00
71457;BME280;59263;48.160;11.752;2023-01-30T07:13:31;96289.72;;;-2.79;100.00
71457;BME280;59263;48.160;11.752;2023-01-30T07:15:56;96281.09;;;-2.73;100.00
71457;BME280;59263;48.160;11.752;2023-01-30T07:18:21;96286.00;;;-2.69;100.00
71457;BME280;59263;48.160;11.752;2023-01-30T07:20:48;96299.91;;;-2.55;100.00
71457;BME280;59263;48.160;11.752;2023-01-30T07:23:13;96280.56;;;-2.58;100.00
71457;BME280;59263;48.160;11.752;2023-01-30T07:25:39;96280.31;;;-2.50;100.00
71457;BME280;59263;48.160;11.752;2023-01-30T07:28:04;96289.97;;;-2.36;100.00
71457;BME280;59263;48.160;11.752;2023-01-30T07:30:32;96273.25;;;-2.40;100.00
71457;BME280;59263;48.160;11.752;2023-01-30T07:32:59;96251.28;;;-2.41;100.00
71457;BME280;59263;48.160;11.752;2023-01-30T07:35:26;96280.75;;;-2.14;100.00
71457;BME280;59263;48.160;11.752;2023-01-30T07:37:52;96251.25;;;-2.16;100.00
71457;BME280;59263;48.160;11.752;2023-01-30T07:40:18;96267.78;;;-2.06;100.00
71457;BME280;59263;48.160;11.752;2023-01-30T07:43:01;96278.69;;;-1.81;100.00
71457;BME280;59263;48.160;11.752;2023-01-30T07:45:36;96279.16;;;-1.71;100.00
71457;BME280;59263;48.160;11.752;2023-01-30T07:48:02;96259.97;;;-1.78;100.00
71457;BME280;59263;48.160;11.752;2023-01-30T07:50:28;96248.69;;;-1.69;100.00
71457;BME280;59263;48.160;11.752;2023-01-30T07:52:53;96266.97;;;-1.61;100.00
71457;BME280;59263;48.160;11.752;2023-01-30T07:55:18;96230.03;;;-1.68;100.00
71457;BME280;59263;48.160;11.752;2023-01-30T07:57:44;96209.09;;;-1.74;100.00
71457;BME280;59263;48.160;11.752;2023-01-30T08:00:10;96230.69;;;-1.63;100.00
71457;BME280;59263;48.160;11.752;2023-01-30T08:02:36;96218.78;;;-1.61;100.00
71457;BME280;59263;48.160;11.752;2023-01-30T08:05:02;96221.50;;;-1.44;100.00
71457;BME280;59263;48.160;11.752;2023-01-30T08:07:27;96212.09;;;-1.42;100.00
71457;BME280;59263;48.160;11.752;2023-01-30T08:09:53;96232.91;;;-1.34;100.00
71457;BME280;59263;48.160;11.752;2023-01-30T08:12:18;96205.28;;;-1.41;100.00
71457;BME280;59263;48.160;11.752;2023-01-30T08:14:43;96217.22;;;-1.22;100.00
71457;BME280;59263;48.160;11.752;2023-01-30T08:17:08;96208.31;;;-1.11;100.00
71457;BME280;59263;48.160;11.752;2023-01-30T08:19:34;96212.13;;;-1.01;100.00
71457;BME280;59263;48.160;11.752;2023-01-30T08:22:00;96208.13;;;-0.86;100.00
71457;BME280;59263;48.160;11.752;2023-01-30T08:24:25;96214.25;;;-0.70;100.00
71457;BME280;59263;48.160;11.752;2023-01-30T08:26:50;96184.91;;;-0.77;100.00
71457;BME280;59263;48.160;11.752;2023-01-30T08:29:16;96173.22;;;-0.81;100.00
71457;BME280;59263;48.160;11.752;2023-01-30T08:31:41;96205.84;;;-0.52;100.00
71457;BME280;59263;48.160;11.752;2023-01-30T08:34:07;96194.91;;;-0.54;100.00
71457;BME280;59263;48.160;11.752;2023-01-30T08:36:32;96187.34;;;-0.55;100.00
71457;BME280;59263;48.160;11.752;2023-01-30T08:38:57;96183.66;;;-0.48;100.00
71457;BME280;59263;48.160;11.752;2023-01-30T08:41:23;96191.41;;;-0.51;100.00
71457;BME280;59263;48.160;11.752;2023-01-30T08:43:48;96180.75;;;-0.59;100.00
71457;BME280;59263;48.160;11.752;2023-01-30T08:46:13;96159.41;;;-0.76;100.00
71457;BME280;59263;48.160;11.752;2023-01-30T08:48:41;96149.38;;;-0.79;100.00
71457;BME280;59263;48.160;11.752;2023-01-30T08:51:09;96168.41;;;-0.48;100.00
71457;BME280;59263;48.160;11.752;2023-01-30T08:53:34;96177.22;;;-0.17;100.00
71457;BME280;59263;48.160;11.752;2023-01-30T08:56:00;96169.16;;;-0.08;100.00
71457;BME280;59263;48.160;11.752;2023-01-30T08:58:25;96176.97;;;0.06;100.00
71457;BME280;59263;48.160;11.752;2023-01-30T09:00:50;96188.19;;;0.02;100.00
71457;BME280;59263;48.160;11.752;2023-01-30T09:03:17;96176.38;;;0.01;100.00
71457;BME280;59263;48.160;11.752;2023-01-30T09:05:42;96166.94;;;0.03;100.00
71457;BME280;59263;48.160;11.752;2023-01-30T09:08:08;96176.97;;;0.06;100.00
71457;BME280;59263;48.160;11.752;2023-01-30T09:10:33;96158.72;;;-0.02;100.00
71457;BME280;59263;48.160;11.752;2023-01-30T09:12:59;96167.84;;;0.02;100.00
71457;BME280;59263;48.160;11.752;2023-01-30T09:15:24;96176.75;;;0.11;100.00
71457;BME280;59263;48.160;11.752;2023-01-30T09:17:52;96162.03;;;0.17;100.00
71457;BME280;59263;48.160;11.752;2023-01-30T09:20:18;96166.84;;;0.23;100.00
71457;BME280;59263;48.160;11.752;2023-01-30T09:22:45;96175.50;;;0.38;100.00
71457;BME280;59263;48.160;11.752;2023-01-30T09:25:11;96175.94;;;0.46;100.00
71457;BME280;59263;48.160;11.752;2023-01-30T09:27:37;96164.00;;;0.48;100.00
71457;BME280;59263;48.160;11.752;2023-01-30T09:30:03;96163.69;;;0.55;100.00
71457;BME280;59263;48.160;11.752;2023-01-30T09:32:29;96160.59;;;0.48;100.00
71457;BME280;59263;48.160;11.752;2023-01-30T09:34:54;96184.50;;;0.63;100.00
71457;BME280;59263;48.160;11.752;2023-01-30T09:37:20;96171.09;;;0.77;100.00
71457;BME280;59263;48.160;11.752;2023-01-30T09:39:45;96151.09;;;0.69;100.00
71457;BME280;59263;48.160;11.752;2023-01-30T09:47:46;96141.69;;;1.21;100.00
71457;BME280;59263;48.160;11.752;2023-01-30T09:53:03;96139.22;;;1.20;100.00
71457;BME280;59263;48.160;11.752;2023-01-30T09:55:32;96136.59;;;1.21;100.00
71457;BME280;59263;48.160;11.752;2023-01-30T09:58:01;96137.59;;;1.19;100.00
71457;BME280;59263;48.160;11.752;2023-01-30T10:00:34;96133.75;;;1.10;100.00
71457;BME280;59263;48.160;11.752;2023-01-30T10:03:20;96133.63;;;1.13;100.00
71457;BME280;59263;48.160;11.752;2023-01-30T10:05:57;96111.75;;;1.09;100.00
71457;BME280;59263;48.160;11.752;2023-01-30T10:17:32;96139.22;;;1.53;100.00
71457;BME280;59263;48.160;11.752;2023-01-30T10:23:03;96102.09;;;1.32;100.00
71457;BME280;59263;48.160;11.752;2023-01-30T10:25:55;96078.25;;;1.33;100.00
71457;BME280;59263;48.160;11.752;2023-01-30T10:28:25;96076.50;;;1.33;100.00
71457;BME280;59263;48.160;11.752;2023-01-30T10:31:04;96063.97;;;1.46;100.00
71457;BME280;59263;48.160;11.752;2023-01-30T10:33:36;96066.44;;;1.63;100.00
71457;BME280;59263;48.160;11.752;2023-01-30T10:36:15;96066.91;;;1.70;100.00
71457;BME280;59263;48.160;11.752;2023-01-30T10:38:49;96048.63;;;1.78;100.00
71457;BME280;59263;48.160;11.752;2023-01-30T10:41:34;96058.50;;;1.84;100.00
71457;BME280;59263;48.160;11.752;2023-01-30T10:44:08;96065.09;;;1.88;100.00
71457;BME280;59263;48.160;11.752;2023-01-30T10:46:57;96068.38;;;2.06;100.00
71457;BME280;59263;48.160;11.752;2023-01-30T10:49:35;96054.41;;;2.27;100.00
71457;BME280;59263;48.160;11.752;2023-01-30T10:57:46;96041.06;;;2.52;100.00
71457;BME280;59263;48.160;11.752;2023-01-30T11:00:28;96080.09;;;2.54;100.00
71457;BME280;59263;48.160;11.752;2023-01-30T11:03:07;96061.84;;;2.46;100.00
71457;BME280;59263;48.160;11.752;2023-01-30T11:05:50;96058.72;;;2.41;100.00
71457;BME280;59263;48.160;11.752;2023-01-30T11:08:34;96049.34;;;2.41;100.00
71457;BME280;59263;48.160;11.752;2023-01-30T11:11:02;96043.06;;;2.47;100.00
71457;BME280;59263;48.160;11.752;2023-01-30T11:13:44;96007.47;;;2.44;100.00
71457;BME280;59263;48.160;11.752;2023-01-30T11:16:10;96009.34;;;2.56;100.00
71457;BME280;59263;48.160;11.752;2023-01-30T11:18:46;96002.56;;;2.70;100.00
71457;BME280;59263;48.160;11.752;2023-01-30T11:21:21;95998.66;;;2.64;100.00
71457;BME280;59263;48.160;11.752;2023-01-30T11:23:48;95992.53;;;2.66;100.00
71457;BME280;59263;48.160;11.752;2023-01-30T11:26:28;95981.50;;;2.66;100.00
71457;BME280;59263;48.160;11.752;2023-01-30T11:28:57;95990.09;;;2.79;100.00
71457;BME280;59263;48.160;11.752;2023-01-30T11:31:27;95985.69;;;2.81;100.00
71457;BME280;59263;48.160;11.752;2023-01-30T11:34:04;95964.63;;;2.78;100.00
71457;BME280;59263;48.160;11.752;2023-01-30T11:36:34;95977.38;;;2.92;100.00
71457;BME280;59263;48.160;11.752;2023-01-30T11:41:29;95977.84;;;2.99;100.00
71457;BME280;59263;48.160;11.752;2023-01-30T11:44:00;95996.47;;;3.01;100.00
71457;BME280;59263;48.160;11.752;2023-01-30T11:46:29;95966.00;;;2.98;100.00
71457;BME280;59263;48.160;11.752;2023-01-30T11:49:00;95966.63;;;3.01;100.00
71457;BME280;59263;48.160;11.752;2023-01-30T11:51:28;95952.94;;;3.02;100.00
71457;BME280;59263;48.160;11.752;2023-01-30T11:54:00;95945.44;;;2.99;100.00
71457;BME280;59263;48.160;11.752;2023-01-30T11:56:33;95943.81;;;2.98;100.00
71457;BME280;59263;48.160;11.752;2023-01-30T11:59:03;95930.41;;;2.80;100.00
71457;BME280;59263;48.160;11.752;2023-01-30T12:01:32;95939.44;;;2.72;100.00
71457;BME280;59263;48.160;11.752;2023-01-30T12:03:58;95944.56;;;2.72;100.00
71457;BME280;59263;48.160;11.752;2023-01-30T12:06:33;95962.97;;;2.77;100.00
71457;BME280;59263;48.160;11.752;2023-01-30T12:08:59;95954.59;;;2.75;100.00
71457;BME280;59263;48.160;11.752;2023-01-30T12:11:30;95920.13;;;2.53;100.00
71457;BME280;59263;48.160;11.752;2023-01-30T12:14:08;95922.22;;;2.47;100.00
71457;BME280;59263;48.160;11.752;2023-01-30T12:17:34;95945.28;;;2.59;100.00
71457;BME280;59263;48.160;11.752;2023-01-30T12:25:35;95912.44;;;2.39;100.00
71457;BME280;59263;48.160;11.752;2023-01-30T12:28:13;95923.19;;;2.44;100.00
71457;BME280;59263;48.160;11.752;2023-01-30T12:30:47;95925.75;;;2.44;100.00
71457;BME280;59263;48.160;11.752;2023-01-30T12:33:14;95901.88;;;2.45;100.00
71457;BME280;59263;48.160;11.752;2023-01-30T12:36:04;95906.44;;;2.54;100.00
71457;BME280;59263;48.160;11.752;2023-01-30T12:46:47;95855.34;;;2.40;100.00
71457;BME280;59263;48.160;11.752;2023-01-30T12:52:15;95849.72;;;2.35;100.00
71457;BME280;59263;48.160;11.752;2023-01-30T12:58:26;95848.44;;;2.28;100.00
71457;BME280;59263;48.160;11.752;2023-01-30T13:09:06;95884.66;;;2.49;100.00
71457;BME280;59263;48.160;11.752;2023-01-30T13:17:37;95901.50;;;2.65;100.00
71457;BME280;59263;48.160;11.752;2023-01-30T13:23:03;95887.28;;;2.47;100.00
71457;BME280;59263;48.160;11.752;2023-01-30T13:28:11;95901.88;;;2.45;100.00
71457;BME280;59263;48.160;11.752;2023-01-30T13:30:39;95925.59;;;2.47;100.00
71457;BME280;59263;48.160;11.752;2023-01-30T13:33:12;95945.09;;;2.62;100.00
71457;BME280;59263;48.160;11.752;2023-01-30T13:35:45;95923.84;;;2.48;100.00
71457;BME280;59263;48.160;11.752;2023-01-30T13:38:18;95946.94;;;2.60;100.00
71457;BME280;59263;48.160;11.752;2023-01-30T13:40:46;95946.94;;;2.60;100.00
71457;BME280;59263;48.160;11.752;2023-01-30T13:43:24;95952.97;;;2.45;100.00
71457;BME280;59263;48.160;11.752;2023-01-30T13:45:53;95940.34;;;2.28;100.00
71457;BME280;59263;48.160;11.752;2023-01-30T13:48:42;95966.44;;;2.47;100.00
71457;BME280;59263;48.160;11.752;2023-01-30T13:54:00;95942.91;;;2.28;100.00
71457;BME280;59263;48.160;11.752;2023-01-30T13:56:33;95959.69;;;2.46;100.00
71457;BME280;59263;48.160;11.752;2023-01-30T14:12:43;95987.16;;;2.57;100.00
71457;BME280;59263;48.160;11.752;2023-01-30T14:15:21;95972.19;;;2.51;100.00
71457;BME280;59263;48.160;11.752;2023-01-30T14:20:28;95940.88;;;2.18;100.00
71457;BME280;59263;48.160;11.752;2023-01-30T14:22:56;95959.94;;;2.27;100.00
71457;BME280;59263;48.160;11.752;2023-01-30T14:27:56;95992.31;;;2.41;100.00
71457;BME280;59263;48.160;11.752;2023-01-30T14:30:47;96008.66;;;2.38;100.00
71457;BME280;59263;48.160;11.752;2023-01-30T14:38:26;96025.13;;;2.33;100.00
71457;BME280;59263;48.160;11.752;2023-01-30T14:48:59;96039.69;;;2.16;100.00
71457;BME280;59263;48.160;11.752;2023-01-30T14:51:41;96043.81;;;2.19;100.00
71457;BME280;59263;48.160;11.752;2023-01-30T14:59:37;96060.84;;;2.18;100.00
71457;BME280;59263;48.160;11.752;2023-01-30T15:07:10;96039.91;;;1.98;100.00
71457;BME280;59263;48.160;11.752;2023-01-30T15:09:38;96067.72;;;2.02;100.00
71457;BME280;59263;48.160;11.752;2023-01-30T15:15:13;96084.66;;;2.03;100.00